createdAt,value
2017-05-08T00:00:31.180Z,0
2017-05-08T00:01:41.536Z,0
2017-05-08T00:02:51.905Z,0
2017-05-08T00:04:02.257Z,0
2017-05-08T00:05:11.993Z,0
2017-05-08T00:06:22.042Z,0
2017-05-08T00:07:32.070Z,0
2017-05-08T00:08:42.429Z,0
2017-05-08T00:09:52.771Z,0
2017-05-08T00:11:03.113Z,0
2017-05-08T00:12:13.156Z,0
2017-05-08T00:13:23.546Z,0
2017-05-08T00:14:33.933Z,0
2017-05-08T00:15:44.270Z,0
2017-05-08T00:16:54.621Z,0
2017-05-08T00:18:04.973Z,0
2017-05-08T00:19:15.315Z,0
2017-05-08T00:20:25.356Z,0
2017-05-08T00:21:35.708Z,0
2017-05-08T00:22:46.075Z,0
2017-05-08T00:23:56.431Z,0
2017-05-08T00:25:06.466Z,0
2017-05-08T00:26:16.833Z,0
2017-05-08T00:27:26.885Z,0
2017-05-08T00:28:37.298Z,0
2017-05-08T00:29:47.654Z,0
2017-05-08T00:30:57.686Z,0
2017-05-08T00:32:07.721Z,0
2017-05-08T00:33:18.091Z,0
2017-05-08T00:34:28.437Z,0
2017-05-08T00:35:38.790Z,0
2017-05-08T00:36:49.128Z,0
2017-05-08T00:37:59.472Z,0
2017-05-08T00:39:09.513Z,0
2017-05-08T00:40:19.863Z,0
2017-05-08T00:41:29.917Z,0
2017-05-08T00:42:40.280Z,0
2017-05-08T00:43:50.626Z,0
2017-05-08T00:45:00.968Z,0
2017-05-08T00:46:11.315Z,0
2017-05-08T00:47:21.668Z,0
2017-05-08T00:48:31.710Z,0
2017-05-08T00:49:42.064Z,0
2017-05-08T00:50:52.419Z,0
2017-05-08T00:52:02.474Z,0
2017-05-08T00:53:12.852Z,0
2017-05-08T00:54:23.214Z,0
2017-05-08T00:55:33.254Z,0
2017-05-08T00:56:43.326Z,0
2017-05-08T00:57:53.731Z,0
2017-05-08T00:59:04.080Z,0
2017-05-08T01:00:14.423Z,0
2017-05-08T01:01:24.781Z,0
2017-05-08T01:02:34.838Z,0
2017-05-08T01:03:45.178Z,0
2017-05-08T01:04:55.533Z,0
2017-05-08T01:06:05.907Z,0
2017-05-08T01:07:16.246Z,0
2017-05-08T01:08:26.291Z,0
2017-05-08T01:09:36.632Z,0
2017-05-08T01:10:46.675Z,0
2017-05-08T01:11:57.025Z,0
2017-05-08T01:13:07.376Z,0
2017-05-08T01:14:17.443Z,0
2017-05-08T01:15:27.165Z,0
2017-05-08T01:16:37.198Z,0
2017-05-08T01:17:47.547Z,0
2017-05-08T01:18:57.919Z,0
2017-05-08T01:20:07.997Z,0
2017-05-08T01:21:18.339Z,0
2017-05-08T01:22:28.686Z,0
2017-05-08T01:23:39.037Z,0
2017-05-08T01:24:49.075Z,0
2017-05-08T01:25:59.422Z,0
2017-05-08T01:27:09.770Z,0
2017-05-08T01:28:20.143Z,0
2017-05-08T01:29:30.519Z,0
2017-05-08T01:30:40.874Z,0
2017-05-08T01:31:51.214Z,0
2017-05-08T01:33:01.552Z,0
2017-05-08T01:34:11.636Z,0
2017-05-08T01:35:21.979Z,0
2017-05-08T01:36:32.022Z,0
2017-05-08T01:37:42.361Z,0
2017-05-08T01:38:52.466Z,0
2017-05-08T01:40:02.798Z,0
2017-05-08T01:41:13.162Z,0
2017-05-08T01:42:23.199Z,0
2017-05-08T01:43:33.558Z,0
2017-05-08T01:44:43.890Z,0
2017-05-08T01:45:54.249Z,0
2017-05-08T01:47:04.594Z,0
2017-05-08T01:48:15.020Z,0
2017-05-08T01:49:25.390Z,0
2017-05-08T01:50:35.769Z,0
2017-05-08T01:51:45.795Z,0
2017-05-08T01:52:55.837Z,0
2017-05-08T01:54:06.192Z,0
2017-05-08T01:55:16.567Z,0
2017-05-08T01:56:26.922Z,0
2017-05-08T01:57:37.267Z,0
2017-05-08T01:58:47.654Z,0
2017-05-08T01:59:57.704Z,0
2017-05-08T02:01:08.057Z,0
2017-05-08T02:02:17.791Z,0
2017-05-08T02:03:27.812Z,0
2017-05-08T02:04:38.155Z,0
2017-05-08T02:05:48.191Z,0
2017-05-08T02:06:58.227Z,0
2017-05-08T02:08:08.587Z,0
2017-05-08T02:09:18.939Z,0
2017-05-08T02:10:28.670Z,0
2017-05-08T02:11:39.029Z,0
2017-05-08T02:12:49.378Z,0
2017-05-08T02:13:59.404Z,0
2017-05-08T02:15:09.764Z,0
2017-05-08T02:16:20.157Z,0
2017-05-08T02:17:30.207Z,0
2017-05-08T02:18:40.552Z,0
2017-05-08T02:19:50.893Z,0
2017-05-08T02:21:01.289Z,0
2017-05-08T02:22:11.620Z,0
2017-05-08T02:23:21.647Z,0
2017-05-08T02:24:32.011Z,0
2017-05-08T02:25:42.364Z,0
2017-05-08T02:26:52.698Z,0
2017-05-08T02:28:03.058Z,0
2017-05-08T02:29:13.409Z,0
2017-05-08T02:30:23.757Z,0
2017-05-08T02:31:33.789Z,0
2017-05-08T02:32:44.140Z,0
2017-05-08T02:33:54.483Z,0
2017-05-08T02:35:04.878Z,0
2017-05-08T02:36:14.918Z,0
2017-05-08T02:37:25.256Z,0
2017-05-08T02:38:35.598Z,0
2017-05-08T02:39:45.644Z,0
2017-05-08T02:40:55.362Z,0
2017-05-08T02:42:05.422Z,0
2017-05-08T02:43:15.445Z,0
2017-05-08T02:44:25.478Z,0
2017-05-08T02:45:35.813Z,0
2017-05-08T02:46:46.151Z,0
2017-05-08T02:47:56.497Z,0
2017-05-08T02:49:06.859Z,0
2017-05-08T02:50:17.191Z,0
2017-05-08T02:51:27.228Z,0
2017-05-08T02:52:37.568Z,0
2017-05-08T02:53:47.921Z,0
2017-05-08T02:54:57.967Z,0
2017-05-08T02:56:08.317Z,0
2017-05-08T02:57:18.672Z,0
2017-05-08T02:58:29.014Z,0
2017-05-08T02:59:39.379Z,0
2017-05-08T03:00:49.737Z,0
2017-05-08T03:02:00.074Z,0
2017-05-08T03:33:15.514Z,10
2017-05-08T03:34:25.844Z,15
2017-05-08T03:35:36.207Z,15
2017-05-08T03:36:46.567Z,15
2017-05-08T03:37:56.904Z,15
2017-05-08T03:39:06.982Z,20
2017-05-08T03:40:17.336Z,20
2017-05-08T03:41:27.380Z,20
2017-05-08T03:42:37.418Z,20
2017-05-08T03:43:47.437Z,25
2017-05-08T03:44:57.781Z,25
2017-05-08T03:46:08.138Z,25
2017-05-08T03:47:18.170Z,30
2017-05-08T03:48:28.535Z,30
2017-05-08T03:49:38.573Z,30
2017-05-08T03:50:48.982Z,35
2017-05-08T03:51:58.712Z,35
2017-05-08T03:53:08.754Z,40
2017-05-08T03:54:19.104Z,40
2017-05-08T03:55:29.454Z,40
2017-05-08T03:56:39.794Z,40
2017-05-08T03:57:49.827Z,40
2017-05-08T03:58:59.878Z,45
2017-05-08T04:00:09.919Z,45
2017-05-08T04:01:20.272Z,50
2017-05-08T04:02:30.669Z,55
2017-05-08T04:03:41.016Z,55
2017-05-08T04:04:51.047Z,55
2017-05-08T04:06:01.093Z,60
2017-05-08T04:07:11.456Z,65
2017-05-08T04:08:21.804Z,65
2017-05-08T04:09:32.152Z,70
2017-05-08T04:10:42.516Z,70
2017-05-08T04:11:52.898Z,75
2017-05-08T04:13:03.252Z,75
2017-05-08T04:14:13.353Z,80
2017-05-08T04:15:23.076Z,85
2017-05-08T04:16:33.434Z,90
2017-05-08T04:17:43.483Z,90
2017-05-08T04:18:53.841Z,95
2017-05-08T04:20:03.892Z,120
2017-05-08T04:21:14.249Z,135
2017-05-08T04:22:24.589Z,170
2017-05-08T04:23:34.943Z,145
2017-05-08T04:24:45.015Z,135
2017-05-08T04:25:55.408Z,120
2017-05-08T04:27:05.766Z,115
2017-05-08T04:28:15.814Z,115
2017-05-08T04:29:25.870Z,115
2017-05-08T04:30:36.216Z,120
2017-05-08T04:31:46.564Z,165
2017-05-08T04:32:56.926Z,125
2017-05-08T04:34:07.317Z,130
2017-05-08T04:35:17.664Z,135
2017-05-08T04:36:28.021Z,140
2017-05-08T04:37:38.370Z,125
2017-05-08T04:38:48.714Z,125
2017-05-08T04:39:59.064Z,130
2017-05-08T04:41:09.429Z,130
2017-05-08T04:42:19.785Z,180
2017-05-08T04:43:29.838Z,195
2017-05-08T04:44:40.192Z,215
2017-05-08T04:45:50.244Z,255
2017-05-08T04:47:00.320Z,285
2017-05-08T04:48:10.675Z,205
2017-05-08T04:49:20.713Z,185
2017-05-08T04:50:31.047Z,165
2017-05-08T04:51:41.391Z,190
2017-05-08T04:52:51.734Z,205
2017-05-08T04:54:02.099Z,215
2017-05-08T04:55:12.133Z,215
2017-05-08T04:56:22.499Z,210
2017-05-08T04:57:32.845Z,210
2017-05-08T04:58:43.208Z,205
2017-05-08T04:59:53.573Z,190
2017-05-08T05:01:03.933Z,185
2017-05-08T05:02:14.001Z,155
2017-05-08T05:03:24.385Z,125
2017-05-08T05:04:34.730Z,120
2017-05-08T05:05:45.315Z,115
2017-05-08T05:06:55.355Z,115
2017-05-08T05:08:05.717Z,115
2017-05-08T05:09:16.067Z,115
2017-05-08T05:10:26.423Z,115
2017-05-08T05:11:36.793Z,110
2017-05-08T05:12:46.842Z,110
2017-05-08T05:13:57.202Z,110
2017-05-08T05:15:07.546Z,110
2017-05-08T05:16:17.916Z,115
2017-05-08T05:17:27.655Z,120
2017-05-08T05:18:38.003Z,130
2017-05-08T05:19:48.075Z,140
2017-05-08T05:20:58.144Z,160
2017-05-08T05:22:08.191Z,160
2017-05-08T05:23:18.556Z,150
2017-05-08T05:24:28.898Z,140
2017-05-08T05:25:38.668Z,140
2017-05-08T05:26:48.711Z,120
2017-05-08T05:27:59.054Z,100
2017-05-08T05:29:09.081Z,95
2017-05-08T05:30:19.111Z,95
2017-05-08T05:31:29.154Z,95
2017-05-08T05:32:39.503Z,100
2017-05-08T05:33:50.096Z,105
2017-05-08T05:35:00.452Z,110
2017-05-08T05:36:10.488Z,115
2017-05-08T05:37:20.855Z,120
2017-05-08T05:38:30.889Z,120
2017-05-08T05:39:41.234Z,130
2017-05-08T05:40:51.593Z,130
2017-05-08T05:42:01.966Z,135
2017-05-08T05:43:12.311Z,145
2017-05-08T05:44:22.357Z,155
2017-05-08T05:45:32.729Z,155
2017-05-08T05:46:43.153Z,155
2017-05-08T05:47:53.210Z,160
2017-05-08T05:49:03.594Z,165
2017-05-08T05:50:13.937Z,175
2017-05-08T05:51:24.027Z,185
2017-05-08T05:52:34.384Z,210
2017-05-08T05:53:44.759Z,240
2017-05-08T05:54:55.126Z,300
2017-05-08T05:56:05.187Z,295
2017-05-08T05:57:15.244Z,270
2017-05-08T05:58:25.303Z,260
2017-05-08T05:59:35.663Z,255
2017-05-08T06:00:45.726Z,255
2017-05-08T06:01:56.085Z,255
2017-05-08T06:03:06.448Z,250
2017-05-08T06:04:17.117Z,255
2017-05-08T06:05:27.163Z,260
2017-05-08T06:06:37.562Z,265
2017-05-08T06:07:47.910Z,270
2017-05-08T06:08:58.274Z,280
2017-05-08T06:10:08.630Z,280
2017-05-08T06:11:18.688Z,275
2017-05-08T06:12:29.045Z,265
2017-05-08T06:13:39.419Z,245
2017-05-08T06:14:49.803Z,235
2017-05-08T06:15:59.859Z,220
2017-05-08T06:17:09.913Z,215
2017-05-08T06:18:20.257Z,210
2017-05-08T06:19:29.996Z,205
2017-05-08T06:20:40.352Z,220
2017-05-08T06:21:50.403Z,210
2017-05-08T06:23:00.445Z,205
2017-05-08T06:24:10.813Z,205
2017-05-08T06:25:20.846Z,195
2017-05-08T06:26:31.196Z,190
2017-05-08T06:27:41.568Z,175
2017-05-08T06:28:51.418Z,165
2017-05-08T06:30:01.770Z,160
2017-05-08T06:31:11.841Z,155
2017-05-08T06:32:22.243Z,160
2017-05-08T06:33:32.634Z,165
2017-05-08T06:34:43.000Z,170
2017-05-08T06:35:53.372Z,180
2017-05-08T06:37:03.732Z,200
2017-05-08T06:38:14.317Z,230
2017-05-08T06:39:24.365Z,240
2017-05-08T06:40:34.726Z,255
2017-05-08T06:41:44.772Z,245
2017-05-08T06:42:54.499Z,245
2017-05-08T06:44:04.856Z,250
2017-05-08T06:45:14.602Z,255
2017-05-08T06:46:24.964Z,265
2017-05-08T06:47:35.025Z,270
2017-05-08T06:48:45.418Z,285
2017-05-08T06:49:55.475Z,285
2017-05-08T06:51:05.814Z,285
2017-05-08T06:52:15.862Z,285
2017-05-08T06:53:26.239Z,280
2017-05-08T06:54:36.601Z,275
2017-05-08T06:55:46.968Z,270
2017-05-08T06:56:57.336Z,265
2017-05-08T06:58:07.695Z,270
2017-05-08T06:59:18.071Z,265
2017-05-08T07:00:28.437Z,265
2017-05-08T07:01:38.481Z,255
2017-05-08T07:02:48.829Z,250
2017-05-08T07:03:58.871Z,240
2017-05-08T07:05:09.227Z,235
2017-05-08T07:06:19.614Z,225
2017-05-08T07:07:29.973Z,220
2017-05-08T07:08:40.327Z,220
2017-05-08T07:09:50.374Z,215
2017-05-08T07:11:00.724Z,215
2017-05-08T07:12:11.086Z,220
2017-05-08T07:13:21.443Z,220
2017-05-08T07:14:31.494Z,225
2017-05-08T07:15:41.889Z,230
2017-05-08T07:16:52.258Z,235
2017-05-08T07:18:02.309Z,240
2017-05-08T07:19:12.047Z,245
2017-05-08T07:20:22.397Z,250
2017-05-08T07:21:32.431Z,265
2017-05-08T07:22:42.842Z,270
2017-05-08T07:23:53.226Z,275
2017-05-08T07:25:03.577Z,280
2017-05-08T07:26:13.924Z,255
2017-05-08T07:27:24.017Z,280
2017-05-08T07:28:34.361Z,285
2017-05-08T07:29:44.397Z,285
2017-05-08T07:30:54.770Z,275
2017-05-08T07:32:05.135Z,280
2017-05-08T07:33:15.544Z,285
2017-05-08T07:34:25.581Z,280
2017-05-08T07:35:35.650Z,275
2017-05-08T07:36:45.679Z,270
2017-05-08T07:37:56.020Z,255
2017-05-08T07:39:06.366Z,245
2017-05-08T07:40:16.737Z,235
2017-05-08T07:41:26.772Z,210
2017-05-08T07:42:36.532Z,205
2017-05-08T07:43:46.255Z,200
2017-05-08T07:44:56.309Z,190
2017-05-08T07:46:05.728Z,170
2017-05-08T07:47:15.768Z,150
2017-05-08T07:48:26.116Z,150
2017-05-08T07:49:36.487Z,140
2017-05-08T07:50:46.825Z,140
2017-05-08T07:51:57.167Z,155
2017-05-08T07:53:07.529Z,160
2017-05-08T07:54:17.883Z,155
2017-05-08T07:55:27.922Z,160
2017-05-08T07:56:38.018Z,160
2017-05-08T07:57:48.058Z,165
2017-05-08T07:58:58.449Z,180
2017-05-08T08:00:08.498Z,185
2017-05-08T08:01:18.846Z,185
2017-05-08T08:02:29.205Z,180
2017-05-08T08:03:39.238Z,175
2017-05-08T08:04:49.275Z,185
2017-05-08T08:05:59.632Z,210
2017-05-08T08:07:09.674Z,230
2017-05-08T08:08:20.047Z,240
2017-05-08T08:09:30.439Z,235
2017-05-08T08:10:40.801Z,225
2017-05-08T08:11:51.192Z,215
2017-05-08T08:13:01.549Z,215
2017-05-08T08:14:11.923Z,220
2017-05-08T08:15:21.952Z,225
2017-05-08T08:16:32.326Z,215
2017-05-08T08:17:42.691Z,205
2017-05-08T08:18:53.052Z,210
2017-05-08T08:20:03.426Z,235
2017-05-08T08:21:13.821Z,245
2017-05-08T08:22:24.178Z,250
2017-05-08T08:23:34.549Z,245
2017-05-08T08:24:44.600Z,230
2017-05-08T08:25:54.961Z,230
2017-05-08T08:27:05.327Z,235
2017-05-08T08:28:15.681Z,255
2017-05-08T08:29:25.765Z,270
2017-05-08T08:30:36.123Z,290
2017-05-08T08:31:46.174Z,295
2017-05-08T08:32:56.562Z,290
2017-05-08T08:34:06.636Z,290
2017-05-08T08:35:16.404Z,280
2017-05-08T08:36:26.760Z,275
2017-05-08T08:37:37.122Z,250
2017-05-08T08:38:47.470Z,245
2017-05-08T08:39:57.186Z,220
2017-05-08T08:41:07.282Z,220
2017-05-08T08:42:17.626Z,220
2017-05-08T08:43:28.028Z,220
2017-05-08T08:44:38.393Z,235
2017-05-08T08:45:48.760Z,245
2017-05-08T08:46:58.787Z,255
2017-05-08T08:48:09.136Z,260
2017-05-08T08:49:19.493Z,260
2017-05-08T08:50:29.864Z,305
2017-05-08T08:51:40.222Z,315
2017-05-08T08:52:50.276Z,335
2017-05-08T08:54:00.643Z,360
2017-05-08T08:55:10.063Z,355
2017-05-08T08:56:20.410Z,345
2017-05-08T08:57:30.451Z,325
2017-05-08T08:58:40.795Z,335
2017-05-08T08:59:51.163Z,330
2017-05-08T09:01:01.243Z,310
2017-05-08T09:02:11.305Z,285
2017-05-08T09:03:21.348Z,300
2017-05-08T09:04:31.379Z,300
2017-05-08T09:05:41.111Z,305
2017-05-08T09:06:51.481Z,295
2017-05-08T09:08:01.223Z,295
2017-05-08T09:09:11.277Z,300
2017-05-08T09:10:21.623Z,270
2017-05-08T09:11:31.700Z,280
2017-05-08T09:12:42.138Z,285
2017-05-08T09:13:51.877Z,280
2017-05-08T09:15:02.234Z,260
2017-05-08T09:16:12.276Z,275
2017-05-08T09:17:22.648Z,245
2017-05-08T09:18:32.682Z,265
2017-05-08T09:19:43.031Z,275
2017-05-08T09:20:53.381Z,270
2017-05-08T09:22:03.724Z,265
2017-05-08T09:23:13.459Z,275
2017-05-08T09:24:23.831Z,295
2017-05-08T09:25:34.192Z,295
2017-05-08T09:26:44.567Z,285
2017-05-08T09:27:54.616Z,270
2017-05-08T09:29:05.016Z,240
2017-05-08T09:30:15.379Z,270
2017-05-08T09:31:25.424Z,260
2017-05-08T09:32:35.781Z,260
2017-05-08T09:33:45.825Z,265
2017-05-08T09:34:56.187Z,250
2017-05-08T09:36:06.546Z,235
2017-05-08T09:37:16.928Z,265
2017-05-08T09:38:26.973Z,260
2017-05-08T09:39:37.330Z,230
2017-05-08T09:40:47.682Z,235
2017-05-08T09:41:57.738Z,260
2017-05-08T09:43:08.108Z,270
2017-05-08T09:44:18.161Z,240
2017-05-08T09:45:28.544Z,280
2017-05-08T09:46:38.896Z,285
2017-05-08T09:47:49.243Z,300
2017-05-08T09:48:59.594Z,295
2017-05-08T09:50:09.638Z,250
2017-05-08T09:51:19.981Z,260
2017-05-08T09:52:30.004Z,295
2017-05-08T09:53:40.380Z,305
2017-05-08T09:54:50.747Z,305
2017-05-08T09:56:01.079Z,320
2017-05-08T09:57:11.121Z,320
2017-05-08T09:58:21.519Z,330
2017-05-08T09:59:31.865Z,330
2017-05-08T10:00:42.230Z,290
2017-05-08T10:01:52.621Z,330
2017-05-08T10:03:03.014Z,335
2017-05-08T10:04:13.386Z,310
2017-05-08T10:05:23.432Z,325
2017-05-08T10:06:33.787Z,315
2017-05-08T10:07:44.153Z,320
2017-05-08T10:08:54.518Z,320
2017-05-08T10:10:04.568Z,320
2017-05-08T10:11:14.620Z,320
2017-05-08T10:12:24.998Z,285
2017-05-08T10:13:35.367Z,315
2017-05-08T10:14:45.726Z,315
2017-05-08T10:15:56.092Z,330
2017-05-08T10:17:06.146Z,335
2017-05-08T10:18:16.504Z,345
2017-05-08T10:19:26.908Z,345
2017-05-08T10:20:36.955Z,345
2017-05-08T10:21:47.381Z,325
2017-05-08T10:22:57.734Z,320
2017-05-08T10:24:08.121Z,315
2017-05-08T10:25:18.158Z,315
2017-05-08T10:26:28.225Z,310
2017-05-08T10:27:38.644Z,320
2017-05-08T10:28:49.004Z,325
2017-05-08T10:29:59.372Z,325
2017-05-08T10:31:09.093Z,320
2017-05-08T10:32:19.454Z,310
2017-05-08T10:33:29.811Z,310
2017-05-08T10:34:40.167Z,335
2017-05-08T10:35:50.546Z,360
2017-05-08T10:37:00.894Z,360
2017-05-08T10:38:10.628Z,370
2017-05-08T10:39:20.970Z,355
2017-05-08T10:40:31.325Z,375
2017-05-08T10:41:41.361Z,380
2017-05-08T10:42:51.746Z,380
2017-05-08T10:44:02.119Z,375
2017-05-08T10:45:12.487Z,385
2017-05-08T10:46:22.835Z,380
2017-05-08T10:47:33.199Z,385
2017-05-08T10:48:43.265Z,380
2017-05-08T10:49:53.305Z,385
2017-05-08T10:51:03.350Z,350
2017-05-08T10:52:13.717Z,345
2017-05-08T10:53:24.069Z,345
2017-05-08T10:54:34.416Z,395
2017-05-08T10:55:44.762Z,390
2017-05-08T10:56:55.174Z,385
2017-05-08T10:58:05.217Z,395
2017-05-08T10:59:15.577Z,390
2017-05-08T11:00:25.654Z,385
2017-05-08T11:01:35.682Z,385
2017-05-08T11:02:46.046Z,380
2017-05-08T11:03:56.418Z,375
2017-05-08T11:05:06.788Z,370
2017-05-08T11:06:16.837Z,360
2017-05-08T11:07:27.179Z,360
2017-05-08T11:08:37.229Z,365
2017-05-08T11:09:47.007Z,360
2017-05-08T11:10:57.056Z,360
2017-05-08T11:12:07.421Z,355
2017-05-08T11:13:17.499Z,355
2017-05-08T11:14:27.909Z,350
2017-05-08T11:15:37.937Z,355
2017-05-08T11:16:48.286Z,360
2017-05-08T11:17:58.328Z,365
2017-05-08T11:19:08.677Z,365
2017-05-08T11:20:18.718Z,375
2017-05-08T11:21:28.757Z,380
2017-05-08T11:22:39.121Z,375
2017-05-08T11:23:49.473Z,355
2017-05-08T11:25:00.070Z,350
2017-05-08T11:26:10.443Z,360
2017-05-08T11:27:20.799Z,365
2017-05-08T11:28:31.180Z,365
2017-05-08T11:29:41.545Z,370
2017-05-08T11:30:51.588Z,370
2017-05-08T11:32:01.997Z,360
2017-05-08T11:33:12.037Z,350
2017-05-08T11:34:22.085Z,345
2017-05-08T11:35:32.434Z,345
2017-05-08T11:36:42.482Z,345
2017-05-08T11:37:52.514Z,350
2017-05-08T11:39:02.546Z,355
2017-05-08T11:40:12.602Z,365
2017-05-08T11:41:22.972Z,365
2017-05-08T11:42:33.050Z,365
2017-05-08T11:43:43.095Z,350
2017-05-08T11:44:52.848Z,355
2017-05-08T11:46:02.883Z,360
2017-05-08T11:47:13.238Z,345
2017-05-08T11:48:23.602Z,355
2017-05-08T11:49:33.960Z,350
2017-05-08T11:50:44.014Z,360
2017-05-08T11:51:54.063Z,370
2017-05-08T11:53:04.433Z,355
2017-05-08T11:54:14.805Z,365
2017-05-08T11:55:25.212Z,375
2017-05-08T11:56:34.947Z,385
2017-05-08T11:57:44.693Z,375
2017-05-08T11:58:55.090Z,375
2017-05-08T12:00:05.456Z,370
2017-05-08T12:01:15.837Z,380
2017-05-08T12:02:26.187Z,385
2017-05-08T12:03:36.542Z,380
2017-05-08T12:04:46.888Z,375
2017-05-08T12:05:57.259Z,375
2017-05-08T12:07:07.599Z,375
2017-05-08T12:08:17.963Z,385
2017-05-08T12:09:28.320Z,395
2017-05-08T12:10:38.845Z,395
2017-05-08T12:11:49.205Z,395
2017-05-08T12:12:59.599Z,370
2017-05-08T12:14:09.692Z,385
2017-05-08T12:15:19.770Z,385
2017-05-08T12:16:30.143Z,395
2017-05-08T12:17:40.519Z,395
2017-05-08T12:18:50.595Z,395
2017-05-08T12:20:00.663Z,390
2017-05-08T12:21:10.747Z,400
2017-05-08T12:22:21.355Z,395
2017-05-08T12:23:31.717Z,395
2017-05-08T12:24:42.122Z,390
2017-05-08T12:25:52.459Z,390
2017-05-08T12:27:02.527Z,390
2017-05-08T12:28:12.897Z,385
2017-05-08T12:29:23.261Z,390
2017-05-08T12:30:33.629Z,385
2017-05-08T12:31:43.997Z,380
2017-05-08T12:32:54.360Z,375
2017-05-08T12:34:04.902Z,350
2017-05-08T12:35:14.978Z,350
2017-05-08T12:36:25.354Z,365
2017-05-08T12:37:35.722Z,370
2017-05-08T12:38:46.129Z,365
2017-05-08T12:39:56.174Z,390
2017-05-08T12:41:06.238Z,380
2017-05-08T12:42:16.297Z,330
2017-05-08T12:43:26.657Z,325
2017-05-08T12:44:36.742Z,320
2017-05-08T12:45:46.832Z,320
2017-05-08T12:46:57.196Z,315
2017-05-08T12:48:07.248Z,320
2017-05-08T12:49:17.308Z,320
2017-05-08T12:50:27.433Z,315
2017-05-08T12:51:37.809Z,315
2017-05-08T12:52:48.200Z,330
2017-05-08T12:53:58.609Z,345
2017-05-08T12:55:08.966Z,350
2017-05-08T12:56:19.346Z,350
2017-05-08T12:57:29.410Z,350
2017-05-08T12:58:39.786Z,345
2017-05-08T12:59:50.161Z,345
2017-05-08T13:01:00.517Z,345
2017-05-08T13:02:10.941Z,345
2017-05-08T13:03:21.310Z,335
2017-05-08T13:04:31.361Z,335
2017-05-08T13:05:41.751Z,340
2017-05-08T13:06:52.127Z,345
2017-05-08T13:08:02.186Z,345
2017-05-08T13:09:12.552Z,350
2017-05-08T13:10:23.172Z,345
2017-05-08T13:11:33.546Z,335
2017-05-08T13:12:43.317Z,330
2017-05-08T13:13:53.694Z,330
2017-05-08T13:15:04.077Z,325
2017-05-08T13:16:14.145Z,325
2017-05-08T13:17:24.530Z,315
2017-05-08T13:18:34.595Z,315
2017-05-08T13:19:45.008Z,315
2017-05-08T13:20:55.401Z,310
2017-05-08T13:22:05.779Z,310
2017-05-08T13:23:16.168Z,305
2017-05-08T13:24:26.542Z,305
2017-05-08T13:25:36.913Z,300
2017-05-08T13:26:46.972Z,305
2017-05-08T13:27:57.012Z,300
2017-05-08T13:29:07.078Z,295
2017-05-08T13:30:17.437Z,290
2017-05-08T13:31:27.814Z,280
2017-05-08T13:32:38.204Z,300
2017-05-08T13:33:48.245Z,300
2017-05-08T13:34:58.628Z,305
2017-05-08T13:36:08.984Z,300
2017-05-08T13:37:19.370Z,295
2017-05-08T13:38:29.408Z,295
2017-05-08T13:39:39.148Z,295
2017-05-08T13:40:49.501Z,295
2017-05-08T13:41:59.903Z,295
2017-05-08T13:43:10.266Z,290
2017-05-08T13:44:20.320Z,290
2017-05-08T13:45:30.370Z,290
2017-05-08T13:46:40.410Z,290
2017-05-08T13:47:50.774Z,280
2017-05-08T13:49:01.128Z,280
2017-05-08T13:50:11.494Z,280
2017-05-08T13:51:21.851Z,285
2017-05-08T13:52:32.217Z,290
2017-05-08T13:53:42.579Z,290
2017-05-08T13:54:52.626Z,290
2017-05-08T13:56:02.979Z,280
2017-05-08T13:57:13.325Z,280
2017-05-08T13:58:23.731Z,275
2017-05-08T13:59:33.490Z,275
2017-05-08T14:00:43.542Z,270
2017-05-08T14:01:53.901Z,275
2017-05-08T14:03:03.947Z,275
2017-05-08T14:04:14.311Z,275
2017-05-08T14:05:24.369Z,260
2017-05-08T14:06:34.726Z,250
2017-05-08T14:07:44.783Z,250
2017-05-08T14:08:55.144Z,255
2017-05-08T14:10:05.498Z,255
2017-05-08T14:11:15.859Z,245
2017-05-08T14:12:25.905Z,250
2017-05-08T14:13:36.290Z,255
2017-05-08T14:14:46.673Z,255
2017-05-08T14:15:57.021Z,250
2017-05-08T14:17:07.066Z,250
2017-05-08T14:18:16.806Z,260
2017-05-08T14:19:27.169Z,260
2017-05-08T14:20:37.564Z,245
2017-05-08T14:21:47.937Z,225
2017-05-08T14:22:58.023Z,225
2017-05-08T14:24:08.078Z,245
2017-05-08T14:25:18.419Z,235
2017-05-08T14:26:28.782Z,245
2017-05-08T14:27:39.141Z,215
2017-05-08T14:28:49.492Z,205
2017-05-08T14:29:59.854Z,205
2017-05-08T14:31:10.212Z,200
2017-05-08T14:32:20.567Z,195
2017-05-08T14:33:30.969Z,185
2017-05-08T14:34:41.330Z,180
2017-05-08T14:35:51.705Z,180
2017-05-08T14:37:01.752Z,175
2017-05-08T14:38:11.796Z,170
2017-05-08T14:39:21.849Z,170
2017-05-08T14:40:32.213Z,170
2017-05-08T14:41:42.577Z,170
2017-05-08T14:42:52.944Z,170
2017-05-08T14:44:03.016Z,170
2017-05-08T14:45:13.393Z,170
2017-05-08T14:46:23.749Z,165
2017-05-08T14:47:33.791Z,165
2017-05-08T14:48:44.147Z,165
2017-05-08T14:49:54.537Z,170
2017-05-08T14:51:04.565Z,170
2017-05-08T14:52:14.926Z,175
2017-05-08T14:53:24.663Z,175
2017-05-08T14:54:35.018Z,170
2017-05-08T14:55:45.381Z,170
2017-05-08T14:56:55.119Z,160
2017-05-08T14:58:05.162Z,155
2017-05-08T14:59:15.518Z,150
2017-05-08T15:00:25.559Z,140
2017-05-08T15:01:35.922Z,125
2017-05-08T15:02:46.290Z,110
2017-05-08T15:03:56.649Z,105
2017-05-08T15:05:06.996Z,90
2017-05-08T15:06:17.031Z,85
2017-05-08T15:07:27.067Z,85
2017-05-08T15:08:36.794Z,95
2017-05-08T15:09:46.567Z,85
2017-05-08T15:10:56.914Z,80
2017-05-08T15:12:07.273Z,85
2017-05-08T15:13:17.642Z,90
2017-05-08T15:14:27.684Z,95
2017-05-08T15:15:38.042Z,100
2017-05-08T15:16:48.408Z,100
2017-05-08T15:17:58.765Z,100
2017-05-08T15:19:09.131Z,90
2017-05-08T15:20:19.504Z,85
2017-05-08T15:21:29.867Z,80
2017-05-08T15:22:40.230Z,80
2017-05-08T15:23:49.964Z,75
2017-05-08T15:25:00.315Z,80
2017-05-08T15:26:10.661Z,80
2017-05-08T15:27:20.698Z,80
2017-05-08T15:28:31.059Z,85
2017-05-08T15:29:41.116Z,85
2017-05-08T15:30:51.158Z,85
2017-05-08T15:32:01.542Z,80
2017-05-08T15:33:11.895Z,80
2017-05-08T15:34:21.921Z,80
2017-05-08T15:35:32.288Z,80
2017-05-08T15:36:42.659Z,80
2017-05-08T15:37:52.414Z,70
2017-05-08T15:39:02.451Z,60
2017-05-08T15:40:12.830Z,50
2017-05-08T15:41:22.856Z,45
2017-05-08T15:42:33.225Z,45
2017-05-08T15:43:43.578Z,45
2017-05-08T15:44:53.926Z,45
2017-05-08T15:46:03.984Z,45
2017-05-08T15:47:13.748Z,50
2017-05-08T15:48:24.424Z,50
2017-05-08T15:49:34.846Z,50
2017-05-08T15:50:45.233Z,50
2017-05-08T15:51:55.596Z,55
2017-05-08T15:53:05.969Z,65
2017-05-08T15:54:16.069Z,65
2017-05-08T15:55:26.488Z,75
2017-05-08T15:56:36.887Z,80
2017-05-08T15:57:47.271Z,85
2017-05-08T15:58:57.015Z,100
2017-05-08T16:00:07.407Z,115
2017-05-08T16:01:17.765Z,135
2017-05-08T16:02:28.125Z,140
2017-05-08T16:03:38.501Z,150
2017-05-08T16:04:48.564Z,160
2017-05-08T16:05:58.654Z,165
2017-05-08T16:07:08.990Z,170
2017-05-08T16:08:19.033Z,180
2017-05-08T16:09:29.393Z,175
2017-05-08T16:10:39.755Z,175
2017-05-08T16:11:49.825Z,180
2017-05-08T16:13:00.216Z,170
2017-05-08T16:14:10.282Z,155
2017-05-08T16:15:20.645Z,155
2017-05-08T16:16:31.020Z,135
2017-05-08T16:17:41.387Z,115
2017-05-08T16:18:51.763Z,105
2017-05-08T16:20:02.146Z,90
2017-05-08T16:21:12.535Z,85
2017-05-08T16:22:22.935Z,75
2017-05-08T16:23:33.318Z,70
2017-05-08T16:24:43.362Z,70
2017-05-08T16:25:53.744Z,65
2017-05-08T16:27:03.802Z,60
2017-05-08T16:28:14.175Z,60
2017-05-08T16:29:24.542Z,60
2017-05-08T16:30:34.913Z,55
2017-05-08T16:31:45.279Z,50
2017-05-08T16:32:55.335Z,40
2017-05-08T16:34:05.715Z,35
2017-05-08T16:35:16.079Z,35
2017-05-08T16:36:26.142Z,25
2017-05-08T16:37:36.178Z,20
2017-05-08T16:38:46.242Z,15
2017-05-08T16:39:56.604Z,15
2017-05-08T16:41:06.958Z,10
2017-05-08T16:42:17.327Z,10
2017-05-08T16:43:27.696Z,10
2017-05-08T16:44:37.744Z,10
2017-05-08T16:45:48.107Z,10
2017-05-08T16:46:58.472Z,10
2017-05-08T16:48:08.838Z,10
2017-05-08T16:49:18.879Z,10
2017-05-08T16:50:29.250Z,10
2017-05-08T16:51:39.617Z,10
2017-05-08T16:52:49.900Z,15
2017-05-08T16:54:00.011Z,15